createdAt,value
2023-03-13T00:01:37.706Z,96251.78
2023-03-13T00:04:06.459Z,96245.47
2023-03-13T00:06:38.477Z,96246.97
2023-03-13T00:09:07.788Z,96249.31
2023-03-13T00:11:36.166Z,96236.84
2023-03-13T00:14:05.960Z,96235.16
2023-03-13T00:16:37.475Z,96235.03
2023-03-13T00:19:06.150Z,96233.97
2023-03-13T00:21:37.555Z,96231.06
2023-03-13T00:24:05.712Z,96234.00
2023-03-13T00:26:33.541Z,96232.75
2023-03-13T00:29:01.291Z,96234.25
2023-03-13T00:31:30.704Z,96247.94
2023-03-13T00:34:00.967Z,96247.69
2023-03-13T00:36:30.496Z,96249.97
2023-03-13T00:39:00.530Z,96248.25
2023-03-13T00:41:29.934Z,96250.91
2023-03-13T00:43:58.034Z,96244.44
2023-03-13T00:46:28.197Z,96234.56
2023-03-13T00:48:56.492Z,96231.19
2023-03-13T00:51:27.041Z,96227.94
2023-03-13T00:53:55.525Z,96223.28
2023-03-13T00:56:24.703Z,96224.25
2023-03-13T00:58:52.420Z,96221.00
2023-03-13T01:01:23.019Z,96221.81
2023-03-13T01:03:52.900Z,96216.00
2023-03-13T01:06:23.153Z,96213.41
2023-03-13T01:08:51.332Z,96216.00
2023-03-13T01:11:21.279Z,96211.78
2023-03-13T01:13:50.843Z,96209.34
2023-03-13T01:16:20.525Z,96202.09
2023-03-13T01:18:50.130Z,96195.09
2023-03-13T01:21:19.848Z,96199.31
2023-03-13T01:23:47.875Z,96188.31
2023-03-13T01:26:16.048Z,96187.66
2023-03-13T01:28:43.850Z,96187.66
2023-03-13T01:31:14.572Z,96181.19
2023-03-13T01:33:42.963Z,96191.59
2023-03-13T01:36:11.164Z,96177.16
2023-03-13T01:38:39.379Z,96175.56
2023-03-13T01:41:08.586Z,96176.38
2023-03-13T01:43:37.575Z,96166.00
2023-03-13T01:46:16.527Z,96166.63
2023-03-13T01:48:52.551Z,96153.66
2023-03-13T01:51:25.105Z,96163.22
2023-03-13T01:53:59.041Z,96154.81
2023-03-13T01:56:31.189Z,96155.78
2023-03-13T01:59:00.250Z,96162.75
2023-03-13T02:01:30.501Z,96150.75
2023-03-13T02:03:59.470Z,96145.91
2023-03-13T02:06:31.181Z,96145.91
2023-03-13T02:09:03.272Z,96138.50
2023-03-13T02:11:38.439Z,96141.25
2023-03-13T02:14:06.282Z,96133.63
2023-03-13T02:16:37.557Z,96133.78
2023-03-13T02:19:16.062Z,96126.19
2023-03-13T02:21:50.445Z,96134.94
2023-03-13T02:24:27.553Z,96124.56
2023-03-13T02:26:57.031Z,96121.97
2023-03-13T02:29:26.886Z,96121.97
2023-03-13T02:31:55.010Z,96115.97
2023-03-13T02:34:27.321Z,96114.19
2023-03-13T02:36:55.683Z,96112.59
2023-03-13T02:39:26.111Z,96102.53
2023-03-13T02:41:55.029Z,96100.31
2023-03-13T02:44:24.249Z,96089.66
2023-03-13T02:46:53.346Z,96091.59
2023-03-13T02:49:24.428Z,96088.38
2023-03-13T02:51:54.596Z,96081.75
2023-03-13T02:54:24.209Z,96080.13
2023-03-13T02:56:55.351Z,96072.34
2023-03-13T02:59:25.058Z,96073.97
2023-03-13T03:01:52.895Z,96070.75
2023-03-13T03:04:22.096Z,96077.09
2023-03-13T03:06:50.626Z,96065.09
2023-03-13T03:09:19.120Z,96074.66
2023-03-13T03:11:47.530Z,96077.88
2023-03-13T03:14:15.369Z,96066.34
2023-03-13T03:16:45.038Z,96069.59
2023-03-13T03:19:12.780Z,96066.63
2023-03-13T03:21:40.882Z,96059.47
2023-03-13T03:24:09.253Z,96057.53
2023-03-13T03:26:37.184Z,96047.16
2023-03-13T03:29:05.103Z,96046.19
2023-03-13T03:31:32.958Z,96040.16
2023-03-13T03:34:02.383Z,96035.81
2023-03-13T03:36:30.418Z,96025.06
2023-03-13T03:38:58.223Z,96028.28
2023-03-13T03:41:25.888Z,96033.13
2023-03-13T03:43:53.523Z,96024.19
2023-03-13T03:46:21.332Z,96013.19
2023-03-13T03:48:49.041Z,96007.66
2023-03-13T03:51:18.215Z,96006.84
2023-03-13T03:53:46.088Z,95998.06
2023-03-13T03:56:13.678Z,96005.69
2023-03-13T03:58:41.435Z,95994.50
2023-03-13T04:01:09.197Z,95995.47
2023-03-13T04:03:37.108Z,95999.22
2023-03-13T04:06:05.180Z,96008.81
2023-03-13T04:08:34.598Z,96002.81
2023-03-13T04:11:03.144Z,95997.63
2023-03-13T04:13:30.728Z,96007.19
2023-03-13T04:15:58.313Z,95998.44
2023-03-13T04:18:26.260Z,95990.47
2023-03-13T04:21:01.668Z,95991.91
2023-03-13T04:23:29.683Z,95999.31
2023-03-13T04:25:58.852Z,95993.16
2023-03-13T04:28:26.572Z,95988.94
2023-03-13T04:30:57.428Z,95984.75
2023-03-13T04:33:25.367Z,95991.53
2023-03-13T04:35:53.103Z,95991.22
2023-03-13T04:38:20.963Z,95994.41
2023-03-13T04:40:48.987Z,95989.03
2023-03-13T04:43:17.812Z,95986.44
2023-03-13T04:45:46.549Z,95987.06
2023-03-13T04:48:14.625Z,95974.91
2023-03-13T04:50:42.172Z,95983.16
2023-03-13T04:53:09.776Z,95981.97
2023-03-13T04:55:37.311Z,95976.44
2023-03-13T04:58:04.848Z,95969.91
2023-03-13T05:00:33.706Z,95961.31
2023-03-13T05:03:01.202Z,95963.09
2023-03-13T05:05:28.841Z,95956.13
2023-03-13T05:07:56.525Z,95960.34
2023-03-13T05:10:24.063Z,95958.53
2023-03-13T05:12:51.568Z,95961.41
2023-03-13T05:15:19.259Z,95960.22
2023-03-13T05:17:48.135Z,95955.03
2023-03-13T05:20:15.826Z,95955.88
2023-03-13T05:22:43.371Z,95951.47
2023-03-13T05:25:11.013Z,95948.06
2023-03-13T05:27:38.517Z,95955.88
2023-03-13T05:30:06.984Z,95960.06
2023-03-13T05:32:34.661Z,95959.09
2023-03-13T05:35:04.231Z,95949.69
2023-03-13T05:37:31.785Z,95954.25
2023-03-13T05:39:59.346Z,95950.69
2023-03-13T05:42:26.941Z,95954.25
2023-03-13T05:44:54.493Z,95944.66
2023-03-13T05:47:22.024Z,95934.25
2023-03-13T05:49:49.536Z,95921.13
2023-03-13T05:52:18.367Z,95919.53
2023-03-13T05:54:45.864Z,95918.34
2023-03-13T05:57:13.594Z,95918.78
2023-03-13T05:59:41.131Z,95920.41
2023-03-13T06:02:08.631Z,95921.66
2023-03-13T06:04:36.481Z,95924.06
2023-03-13T06:07:04.026Z,95924.88
2023-03-13T06:09:33.022Z,95926.47
2023-03-13T06:12:00.576Z,95926.47
2023-03-13T06:14:28.498Z,95918.06
2023-03-13T06:16:58.127Z,95919.47
2023-03-13T06:19:25.941Z,95922.91
2023-03-13T06:21:53.729Z,95913.31
2023-03-13T06:24:21.233Z,95908.56
2023-03-13T06:26:50.991Z,95910.78
2023-03-13T06:29:19.002Z,95909.44
2023-03-13T06:31:46.753Z,95911.50
2023-03-13T06:34:14.970Z,95911.94
2023-03-13T06:36:42.459Z,95915.97
2023-03-13T06:39:10.810Z,95921.56
2023-03-13T06:41:38.356Z,95918.81
2023-03-13T06:44:07.277Z,95912.25
2023-03-13T06:46:34.880Z,95901.31
2023-03-13T06:49:04.703Z,95906.97
2023-03-13T06:51:32.621Z,95891.78
2023-03-13T06:54:00.334Z,95891.59
2023-03-13T06:56:28.018Z,95879.84
2023-03-13T06:58:56.407Z,95888.13
2023-03-13T07:01:25.845Z,95886.16
2023-03-13T07:03:53.594Z,95891.59
2023-03-13T07:06:21.132Z,95887.25
2023-03-13T07:08:48.683Z,95879.69
2023-03-13T07:11:17.058Z,95892.94
2023-03-13T07:13:44.773Z,95889.22
2023-03-13T07:16:14.315Z,95883.09
2023-03-13T07:18:44.705Z,95893.53
2023-03-13T07:21:13.016Z,95889.19
2023-03-13T07:23:41.291Z,95899.63
2023-03-13T07:26:11.761Z,95905.91
2023-03-13T07:28:39.722Z,95906.75
2023-03-13T07:31:08.866Z,95915.38
2023-03-13T07:33:36.452Z,95921.25
2023-03-13T07:36:06.298Z,95924.50
2023-03-13T07:38:33.932Z,95924.72
2023-03-13T07:41:01.521Z,95909.38
2023-03-13T07:43:31.385Z,95935.84
2023-03-13T07:46:00.926Z,95924.47
2023-03-13T07:48:31.272Z,95928.53
2023-03-13T07:50:59.466Z,95939.19
2023-03-13T07:53:28.808Z,95933.41
2023-03-13T07:55:58.309Z,95925.00
2023-03-13T07:58:26.849Z,95920.59
2023-03-13T08:00:54.842Z,95917.41
2023-03-13T08:03:23.673Z,95924.63
2023-03-13T08:05:59.011Z,95912.03
2023-03-13T08:08:28.627Z,95908.41
2023-03-13T08:11:00.992Z,95904.25
2023-03-13T08:13:28.527Z,95909.06
2023-03-13T08:16:03.692Z,95906.25
2023-03-13T08:18:34.699Z,95900.63
2023-03-13T08:21:03.901Z,95899.50
2023-03-13T08:23:32.815Z,95901.91
2023-03-13T08:26:04.144Z,95904.75
2023-03-13T08:28:31.694Z,95901.53
2023-03-13T08:30:59.346Z,95875.28
2023-03-13T08:33:26.873Z,95883.47
2023-03-13T08:35:54.441Z,95866.84
2023-03-13T08:38:21.987Z,95880.28
2023-03-13T08:40:52.173Z,95876.47
2023-03-13T08:43:19.685Z,95866.63
2023-03-13T08:45:47.232Z,95861.22
2023-03-13T08:48:14.766Z,95860.44
2023-03-13T08:50:42.267Z,95864.63
2023-03-13T08:53:09.772Z,95867.47
2023-03-13T08:55:37.258Z,95853.81
2023-03-13T08:58:06.094Z,95845.56
2023-03-13T09:00:34.078Z,95839.16
2023-03-13T09:03:01.580Z,95836.94
2023-03-13T09:05:29.044Z,95832.34
2023-03-13T09:07:56.549Z,95837.53
2023-03-13T09:10:24.177Z,95841.97
2023-03-13T09:12:51.688Z,95831.88
2023-03-13T09:15:20.631Z,95838.09
2023-03-13T09:17:48.169Z,95839.66
2023-03-13T09:20:15.732Z,95826.09
2023-03-13T09:22:43.254Z,95821.22
2023-03-13T09:25:11.237Z,95817.22
2023-03-13T09:27:38.750Z,95833.16
2023-03-13T09:30:07.494Z,95834.25
2023-03-13T09:32:36.449Z,95824.31
2023-03-13T09:35:03.994Z,95831.78
2023-03-13T09:37:31.531Z,95830.53
2023-03-13T09:39:59.742Z,95834.53
2023-03-13T09:42:38.544Z,95831.72
2023-03-13T09:45:12.097Z,95827.28
2023-03-13T09:47:47.224Z,95829.03
2023-03-13T09:50:19.001Z,95834.41
2023-03-13T09:52:50.121Z,95830.38
2023-03-13T09:55:21.476Z,95830.50
2023-03-13T09:57:55.645Z,95840.56
2023-03-13T10:00:26.888Z,95832.13
2023-03-13T10:03:01.615Z,95821.41
2023-03-13T10:05:31.387Z,95820.56
2023-03-13T10:08:10.291Z,95825.16
2023-03-13T10:10:48.128Z,95835.94
2023-03-13T10:13:23.907Z,95838.50
2023-03-13T10:15:56.949Z,95839.47
2023-03-13T10:18:25.894Z,95850.88
2023-03-13T10:20:57.780Z,95845.00
2023-03-13T10:23:34.404Z,95850.41
2023-03-13T10:26:01.932Z,95837.22
2023-03-13T10:28:29.440Z,95846.66
2023-03-13T10:31:07.709Z,95864.81
2023-03-13T10:33:38.236Z,95854.75
2023-03-13T10:36:09.518Z,95849.94
2023-03-13T10:38:48.923Z,95863.03
2023-03-13T10:41:24.988Z,95859.25
2023-03-13T10:43:54.517Z,95848.19
2023-03-13T10:46:26.385Z,95828.84
2023-03-13T10:48:57.097Z,95826.38
2023-03-13T10:51:31.412Z,95825.50
2023-03-13T10:53:58.998Z,95819.97
2023-03-13T10:56:30.396Z,95816.88
2023-03-13T10:58:58.826Z,95820.69
2023-03-13T11:01:28.739Z,95810.56
2023-03-13T11:04:00.670Z,95804.06
2023-03-13T11:06:31.171Z,95799.53
2023-03-13T11:09:06.396Z,95798.19
2023-03-13T11:11:45.413Z,95794.47
2023-03-13T11:14:18.257Z,95783.16
2023-03-13T11:16:50.786Z,95778.06
2023-03-13T11:19:56.246Z,95772.63
2023-03-13T11:22:33.885Z,95771.75
2023-03-13T11:25:18.509Z,95757.00
2023-03-13T11:27:52.951Z,95764.88
2023-03-13T11:30:43.641Z,95759.41
2023-03-13T11:33:18.426Z,95760.19
2023-03-13T11:35:51.364Z,95743.78
2023-03-13T11:38:21.277Z,95751.78
2023-03-13T11:40:58.013Z,95740.84
2023-03-13T11:43:42.450Z,95746.44
2023-03-13T11:46:23.407Z,95738.47
2023-03-13T11:49:23.711Z,95741.44
2023-03-13T11:52:02.622Z,95729.47
2023-03-13T11:54:49.634Z,95733.69
2023-03-13T11:57:29.695Z,95724.91
2023-03-13T12:00:18.456Z,95721.09
2023-03-13T12:02:51.472Z,95713.91
2023-03-13T12:05:21.468Z,95707.38
2023-03-13T12:07:56.464Z,95700.94
2023-03-13T12:10:30.671Z,95699.44
2023-03-13T12:13:04.750Z,95684.16
2023-03-13T12:15:35.738Z,95682.53
2023-03-13T12:18:06.789Z,95667.44
2023-03-13T12:20:43.142Z,95664.00
2023-03-13T12:23:20.031Z,95652.84
2023-03-13T12:25:53.852Z,95644.25
2023-03-13T12:28:32.960Z,95652.25
2023-03-13T12:31:08.520Z,95629.47
2023-03-13T12:33:42.710Z,95628.31
2023-03-13T12:36:15.570Z,95621.03
2023-03-13T12:38:50.846Z,95615.41
2023-03-13T12:41:25.642Z,95608.19
2023-03-13T12:44:07.730Z,95601.09
2023-03-13T12:46:47.403Z,95588.97
2023-03-13T12:49:34.623Z,95590.34
2023-03-13T12:52:21.396Z,95590.50
2023-03-13T12:55:03.964Z,95584.25
2023-03-13T12:58:06.593Z,95582.00
2023-03-13T13:00:39.614Z,95569.19
2023-03-13T13:03:20.111Z,95563.81
2023-03-13T13:06:03.107Z,95551.53
2023-03-13T13:08:35.507Z,95549.25
2023-03-13T13:11:22.007Z,95552.25
2023-03-13T13:13:52.474Z,95531.16
2023-03-13T13:16:22.684Z,95534.34
2023-03-13T13:18:51.366Z,95529.34
2023-03-13T13:21:26.440Z,95527.03
2023-03-13T13:23:56.546Z,95502.50
2023-03-13T13:26:51.335Z,95486.50
2023-03-13T13:29:58.575Z,95477.59
2023-03-13T13:32:43.181Z,95474.00
2023-03-13T13:35:32.590Z,95465.09
2023-03-13T13:38:40.121Z,95451.75
2023-03-13T13:41:37.787Z,95437.28
2023-03-13T13:44:35.411Z,95433.38
2023-03-13T13:47:03.847Z,95426.25
2023-03-13T13:49:52.920Z,95419.94
2023-03-13T13:52:38.599Z,95405.97
2023-03-13T13:55:41.901Z,95400.97
2023-03-13T13:58:14.220Z,95395.72
2023-03-13T14:00:45.720Z,95397.56
2023-03-13T14:03:20.566Z,95396.25
2023-03-13T14:05:53.562Z,95386.75
2023-03-13T14:08:25.671Z,95390.97
2023-03-13T14:11:05.866Z,95371.41
2023-03-13T14:13:33.493Z,95368.25
2023-03-13T14:16:24.053Z,95364.81
2023-03-13T14:18:52.089Z,95350.31
2023-03-13T14:21:24.741Z,95351.88
2023-03-13T14:23:52.793Z,95351.88
2023-03-13T14:26:22.143Z,95342.09
2023-03-13T14:28:51.843Z,95333.91
2023-03-13T14:31:24.809Z,95322.81
2023-03-13T14:33:52.858Z,95325.44
2023-03-13T14:36:20.489Z,95333.34
2023-03-13T14:38:57.494Z,95322.50
2023-03-13T14:41:29.945Z,95306.69
2023-03-13T14:44:03.468Z,95306.44
2023-03-13T14:46:33.510Z,95305.38
2023-03-13T14:49:08.267Z,95306.91
2023-03-13T14:51:39.922Z,95312.66
2023-03-13T14:54:26.331Z,95294.72
2023-03-13T14:57:13.610Z,95282.03
2023-03-13T14:59:43.099Z,95286.78
2023-03-13T15:02:18.255Z,95278.38
2023-03-13T15:04:50.155Z,95264.09
2023-03-13T15:07:18.084Z,95269.91
2023-03-13T15:09:48.970Z,95264.09
2023-03-13T15:12:19.136Z,95249.31
2023-03-13T15:14:48.036Z,95245.13
2023-03-13T15:17:18.899Z,95233.25
2023-03-13T15:19:51.060Z,95225.59
2023-03-13T15:22:20.594Z,95208.72
2023-03-13T15:25:04.946Z,95214.50
2023-03-13T15:27:33.640Z,95201.09
2023-03-13T15:30:01.175Z,95197.66
2023-03-13T15:32:30.676Z,95191.31
2023-03-13T15:34:58.862Z,95201.09
2023-03-13T15:37:27.193Z,95196.59
2023-03-13T15:39:57.570Z,95184.47
2023-03-13T15:42:25.686Z,95166.81
2023-03-13T15:44:53.483Z,95155.72
2023-03-13T15:47:22.932Z,95142.78
2023-03-13T15:49:50.614Z,95151.50
2023-03-13T15:52:20.424Z,95150.16
2023-03-13T15:54:48.129Z,95140.16
2023-03-13T15:57:19.192Z,95132.25
2023-03-13T15:59:46.753Z,95114.84
2023-03-13T16:02:16.346Z,95117.72
2023-03-13T16:04:44.210Z,95098.50
2023-03-13T16:07:12.855Z,95106.41
2023-03-13T16:09:41.054Z,95111.41
2023-03-13T16:12:09.415Z,95101.38
2023-03-13T16:14:38.653Z,95098.50
2023-03-13T16:17:14.788Z,95098.47
2023-03-13T16:19:42.604Z,95094.50
2023-03-13T16:22:10.328Z,95086.06
2023-03-13T16:24:38.071Z,95097.13
2023-03-13T16:27:13.070Z,95098.16
2023-03-13T16:29:42.123Z,95093.16
2023-03-13T16:32:12.913Z,95089.44
2023-03-13T16:34:40.631Z,95088.09
2023-03-13T16:37:13.468Z,95088.88
2023-03-13T16:39:41.016Z,95075.16
2023-03-13T16:42:09.233Z,95065.69
2023-03-13T16:44:36.910Z,95059.34
2023-03-13T16:47:15.564Z,95055.63
2023-03-13T16:49:43.929Z,95047.47
2023-03-13T16:52:15.000Z,95039.28
2023-03-13T16:54:42.556Z,95041.38
2023-03-13T16:57:12.460Z,95037.44
2023-03-13T16:59:40.012Z,95029.00
2023-03-13T17:02:15.075Z,95023.97
2023-03-13T17:04:44.711Z,95025.53
2023-03-13T17:07:18.897Z,95018.94
2023-03-13T17:09:46.627Z,95026.03
2023-03-13T17:12:14.159Z,95024.72
2023-03-13T17:14:41.716Z,95018.91
2023-03-13T17:17:13.560Z,95019.69
2023-03-13T17:19:41.094Z,95011.78
2023-03-13T17:22:08.801Z,95006.50
2023-03-13T17:24:36.322Z,95011.22
2023-03-13T17:27:03.967Z,95008.59
2023-03-13T17:29:31.523Z,94994.63
2023-03-13T17:31:59.023Z,94982.25
2023-03-13T17:34:30.780Z,94982.75
2023-03-13T17:36:59.629Z,94986.94
2023-03-13T17:39:27.117Z,94982.22
2023-03-13T17:41:54.626Z,94986.41
2023-03-13T17:44:22.160Z,94980.06
2023-03-13T17:46:51.028Z,94970.56
2023-03-13T17:49:20.314Z,94965.81
2023-03-13T17:51:51.225Z,94957.94
2023-03-13T17:54:19.366Z,94955.31
2023-03-13T17:56:46.950Z,94945.28
2023-03-13T17:59:16.464Z,94935.28
2023-03-13T18:01:44.165Z,94935.53
2023-03-13T18:04:12.989Z,94947.91
2023-03-13T18:06:42.916Z,94939.47
2023-03-13T18:09:15.371Z,94916.06
2023-03-13T18:11:43.672Z,94906.06
2023-03-13T18:14:11.586Z,94907.38
2023-03-13T18:16:43.169Z,94902.59
2023-03-13T18:19:15.965Z,94900.25
2023-03-13T18:21:44.483Z,94886.78
2023-03-13T18:24:14.446Z,94880.75
2023-03-13T18:26:43.308Z,94878.91
2023-03-13T18:29:14.655Z,94871.78
2023-03-13T18:31:43.769Z,94871.25
2023-03-13T18:34:13.125Z,94856.78
2023-03-13T18:36:40.772Z,94866.28
2023-03-13T18:39:08.272Z,94861.81
2023-03-13T18:41:37.103Z,94872.56
2023-03-13T18:44:04.752Z,94845.75
2023-03-13T18:46:34.625Z,94828.13
2023-03-13T18:49:02.387Z,94825.25
2023-03-13T18:51:30.795Z,94833.66
2023-03-13T18:53:58.355Z,94829.44
2023-03-13T18:56:29.071Z,94823.66
2023-03-13T18:58:58.785Z,94821.31
2023-03-13T19:01:28.513Z,94814.19
2023-03-13T19:03:56.524Z,94802.09
2023-03-13T19:06:26.246Z,94794.72
2023-03-13T19:08:56.433Z,94791.56
2023-03-13T19:11:26.120Z,94771.56
2023-03-13T19:13:54.093Z,94771.56
2023-03-13T19:16:25.994Z,94775.50
2023-03-13T19:18:53.826Z,94792.06
2023-03-13T19:21:25.101Z,94787.31
2023-03-13T19:23:53.905Z,94830.66
2023-03-13T19:26:27.431Z,94838.28
2023-03-13T19:28:55.084Z,94953.38
2023-03-13T19:31:24.107Z,95087.94
2023-03-13T19:33:53.378Z,95222.38
2023-03-13T19:36:22.996Z,95203.56
2023-03-13T19:38:51.292Z,95148.94
2023-03-13T19:41:18.850Z,95106.66
2023-03-13T19:43:47.816Z,95085.94
2023-03-13T19:46:24.541Z,95027.47
2023-03-13T19:48:55.926Z,95022.09
2023-03-13T19:51:24.831Z,95003.66
2023-03-13T19:53:53.415Z,95001.50
2023-03-13T19:56:22.774Z,94979.81
2023-03-13T19:58:51.950Z,95009.78
2023-03-13T20:01:20.196Z,94985.09
2023-03-13T20:03:49.164Z,94998.94
2023-03-13T20:06:19.020Z,95000.44
2023-03-13T20:08:46.866Z,95007.19
2023-03-13T20:11:15.020Z,95002.38
2023-03-13T20:13:43.241Z,95017.44
2023-03-13T20:16:11.861Z,95007.53
2023-03-13T20:18:39.482Z,95038.97
2023-03-13T20:21:08.449Z,95041.38
2023-03-13T20:23:36.012Z,95018.34
2023-03-13T20:26:05.907Z,95023.81
2023-03-13T20:28:33.469Z,95020.06
2023-03-13T20:31:01.040Z,95033.09
2023-03-13T20:33:28.663Z,95035.09
2023-03-13T20:35:58.691Z,94982.63
2023-03-13T20:38:28.116Z,95040.16
2023-03-13T20:40:57.270Z,95074.44
2023-03-13T20:43:25.989Z,95137.28
2023-03-13T20:45:53.944Z,95203.47
2023-03-13T20:48:26.328Z,95266.06
2023-03-13T20:50:55.877Z,95254.50
2023-03-13T20:53:23.681Z,95265.09
2023-03-13T20:55:54.416Z,95265.44
2023-03-13T20:58:22.079Z,95275.00
2023-03-13T21:00:49.919Z,95291.72
2023-03-13T21:03:19.438Z,95296.41
2023-03-13T21:05:47.331Z,95304.81
2023-03-13T21:08:14.919Z,95299.59
2023-03-13T21:10:43.299Z,95289.13
2023-03-13T21:13:12.563Z,95281.25
2023-03-13T21:15:40.540Z,95290.13
2023-03-13T21:18:08.523Z,95288.19
2023-03-13T21:20:36.081Z,95310.72
2023-03-13T21:23:03.907Z,95323.44
2023-03-13T21:25:31.581Z,95346.16
2023-03-13T21:27:59.234Z,95329.16
2023-03-13T21:30:28.201Z,95322.22
2023-03-13T21:32:56.052Z,95322.63
2023-03-13T21:35:23.775Z,95321.13
2023-03-13T21:37:51.423Z,95321.03
2023-03-13T21:40:19.203Z,95330.44
2023-03-13T21:42:46.802Z,95336.47
2023-03-13T21:45:16.151Z,95349.75
2023-03-13T21:47:45.433Z,95351.94
2023-03-13T21:50:13.365Z,95358.53
2023-03-13T21:52:42.303Z,95359.31
2023-03-13T21:55:12.812Z,95362.97
2023-03-13T21:57:41.068Z,95355.34
2023-03-13T22:00:10.379Z,95337.34
2023-03-13T22:02:38.192Z,95312.38
2023-03-13T22:05:08.446Z,95292.66
2023-03-13T22:07:36.431Z,95260.97
2023-03-13T22:10:04.438Z,95251.31
2023-03-13T22:12:31.994Z,95242.69
2023-03-13T22:14:59.636Z,95247.09
2023-03-13T22:17:27.220Z,95232.09
2023-03-13T22:19:55.117Z,95213.03
2023-03-13T22:22:24.041Z,95155.00
2023-03-13T22:24:51.693Z,95217.34
2023-03-13T22:27:19.492Z,95205.84
2023-03-13T22:29:47.670Z,95211.28
2023-03-13T22:32:16.318Z,95208.69
2023-03-13T22:34:47.066Z,95192.00
2023-03-13T22:37:14.752Z,95181.56
2023-03-13T22:39:43.745Z,95171.13
2023-03-13T22:42:11.518Z,95157.91
2023-03-13T22:44:39.110Z,95119.31
2023-03-13T22:47:06.623Z,95129.72
2023-03-13T22:49:34.397Z,95138.06
2023-03-13T22:52:02.657Z,95123.72
2023-03-13T22:54:30.456Z,95110.84
2023-03-13T22:56:59.380Z,95100.94
2023-03-13T22:59:27.112Z,95082.41
2023-03-13T23:01:54.695Z,95068.63
2023-03-13T23:04:22.298Z,95045.63
2023-03-13T23:06:50.010Z,95058.66
2023-03-13T23:09:17.637Z,95063.00
2023-03-13T23:11:45.350Z,95070.94
2023-03-13T23:14:14.491Z,95075.38
2023-03-13T23:16:42.310Z,95077.78
2023-03-13T23:19:09.851Z,95076.97
2023-03-13T23:21:37.424Z,95067.06
2023-03-13T23:24:05.403Z,95075.16
2023-03-13T23:26:32.993Z,95079.59
2023-03-13T23:29:00.577Z,95080.84
2023-03-13T23:31:29.630Z,95091.69
2023-03-13T23:33:59.073Z,95103.50
2023-03-13T23:36:27.202Z,95114.06
2023-03-13T23:38:57.394Z,95109.19
2023-03-13T23:41:25.077Z,95127.69
2023-03-13T23:43:52.605Z,95127.91
2023-03-13T23:46:22.165Z,95131.94
2023-03-13T23:48:53.414Z,95158.03
2023-03-13T23:51:20.986Z,95183.09
2023-03-13T23:53:48.733Z,95207.56
2023-03-13T23:56:16.489Z,95231.47
2023-03-13T23:58:44.837Z,95225.66
